Time;durP1;ratioP1;P1;durP2;ratioP2;P2;SDS_P1;SDS_P2;PMS_P1;PMS_P2;Temp;Humidity;BMP_temperature;BMP_pressure;BME280_temperature;BME280_humidity;BME280_pressure;Samples;Min_cycle;Max_cycle;Signal;HPM_P1;HPM_P2
2020/12/10 00:00:18;;;;;;;1.20;1.10;;;2.60;98.00;;;;;;5089708;28;20491;-62
2020/12/10 00:02:46;;;;;;;1.40;1.37;;;2.50;98.00;;;;;;5092121;28;20447;-62
2020/12/10 00:05:13;;;;;;;1.20;1.17;;;2.50;98.00;;;;;;5090634;28;20444;-62
2020/12/10 00:07:40;;;;;;;1.10;1.00;;;2.50;98.00;;;;;;5092152;28;20491;-62
2020/12/10 00:10:08;;;;;;;1.20;1.20;;;2.50;98.00;;;;;;5089912;28;20471;-62
2020/12/10 00:12:38;;;;;;;1.50;1.37;;;2.60;98.00;;;;;;5092047;28;20925;-62
2020/12/10 00:15:05;;;;;;;1.20;1.10;;;2.50;98.00;;;;;;5089866;28;20455;-62
2020/12/10 00:17:32;;;;;;;1.47;1.37;;;2.50;98.00;;;;;;5090582;28;20501;-61
2020/12/10 00:19:59;;;;;;;2.00;1.57;;;2.60;98.00;;;;;;5090297;28;20787;-62
2020/12/10 00:22:26;;;;;;;1.40;1.30;;;2.60;98.00;;;;;;5091741;28;20584;-62
2020/12/10 00:24:53;;;;;;;2.07;1.93;;;2.60;98.00;;;;;;5089709;28;20517;-62
2020/12/10 00:27:23;;;;;;;1.30;1.13;;;2.60;98.00;;;;;;5091618;28;20933;-62
2020/12/10 00:29:50;;;;;;;1.20;1.00;;;2.60;98.00;;;;;;5090068;28;20450;-62
2020/12/10 00:32:17;;;;;;;1.63;1.20;;;2.60;98.00;;;;;;5091632;28;20993;-62
2020/12/10 00:34:46;;;;;;;1.60;1.37;;;2.50;98.00;;;;;;5089947;28;20601;-62
2020/12/10 00:37:13;;;;;;;1.30;1.20;;;2.50;98.00;;;;;;5091433;28;20468;-62
2020/12/10 00:39:40;;;;;;;1.13;1.00;;;2.50;98.00;;;;;;5089451;28;20523;-62
2020/12/10 00:42:07;;;;;;;1.67;1.63;;;2.60;98.00;;;;;;5091657;28;20456;-62
2020/12/10 00:44:34;;;;;;;2.23;1.87;;;2.60;98.00;;;;;;5089876;28;20956;-62
2020/12/10 00:47:00;;;;;;;1.30;1.30;;;2.70;98.00;;;;;;5091223;28;20487;-62
2020/12/10 00:49:28;;;;;;;1.20;1.03;;;2.60;98.00;;;;;;5089427;28;20516;-62
2020/12/10 00:51:56;;;;;;;1.43;1.20;;;2.60;98.00;;;;;;5091355;28;20459;-62
2020/12/10 00:54:22;;;;;;;4.40;1.63;;;2.60;98.00;;;;;;5089907;28;20463;-62
2020/12/10 00:56:49;;;;;;;1.33;1.30;;;2.70;98.00;;;;;;5091215;28;21137;-62
2020/12/10 00:59:16;;;;;;;1.20;1.20;;;2.70;98.00;;;;;;5089536;28;20530;-62
2020/12/10 01:01:44;;;;;;;1.77;1.63;;;2.60;98.00;;;;;;5091181;28;20480;-61
2020/12/10 01:04:11;;;;;;;1.23;1.07;;;2.50;98.00;;;;;;5089129;28;20487;-63
2020/12/10 01:06:38;;;;;;;2.07;1.73;;;2.50;98.00;;;;;;5091163;28;20783;-62
2020/12/10 01:09:07;;;;;;;1.20;1.10;;;2.50;98.00;;;;;;5089611;28;20452;-62
2020/12/10 01:11:33;;;;;;;1.30;1.20;;;2.40;98.00;;;;;;5091330;28;20512;-62
2020/12/10 01:14:00;;;;;;;2.50;1.50;;;2.40;98.00;;;;;;5089407;28;20449;-62
2020/12/10 01:16:27;;;;;;;1.93;1.90;;;2.30;98.00;;;;;;5090888;28;20511;-62
2020/12/10 01:18:55;;;;;;;1.10;1.07;;;2.30;98.00;;;;;;5089902;28;20859;-63
2020/12/10 01:21:29;;;;;;;1.30;1.27;;;2.10;98.00;;;;;;5089174;28;21099;-62
2020/12/10 01:23:56;;;;;;;1.83;1.57;;;2.10;98.00;;;;;;5091125;28;20909;-62
2020/12/10 01:26:24;;;;;;;1.57;1.43;;;2.20;98.00;;;;;;5089332;28;20458;-62
2020/12/10 01:28:51;;;;;;;1.37;1.30;;;2.10;98.00;;;;;;5090931;28;20447;-62
2020/12/10 01:31:18;;;;;;;1.50;1.43;;;2.10;98.00;;;;;;5089330;28;20452;-61
2020/12/10 01:33:44;;;;;;;3.70;2.10;;;2.10;98.00;;;;;;5094078;28;20466;-63
2020/12/10 01:36:17;;;;;;;1.20;1.10;;;2.10;98.00;;;;;;5093162;28;20460;-62
2020/12/10 01:38:44;;;;;;;1.10;1.00;;;2.00;98.00;;;;;;5094878;28;20525;-62
2020/12/10 01:41:10;;;;;;;1.97;1.73;;;2.00;98.00;;;;;;5092916;28;20507;-62
2020/12/10 01:43:41;;;;;;;1.97;1.10;;;2.00;98.00;;;;;;5094761;28;20459;-62
2020/12/10 01:46:07;;;;;;;1.10;0.90;;;1.90;98.00;;;;;;5092147;28;20465;-62
2020/12/10 01:48:35;;;;;;;1.23;1.10;;;2.00;98.00;;;;;;5094608;28;20877;-62
2020/12/10 01:51:02;;;;;;;4.27;1.60;;;2.30;98.00;;;;;;5092366;28;20458;-62
2020/12/10 01:53:29;;;;;;;1.20;1.10;;;2.50;98.00;;;;;;5094685;28;20450;-62
2020/12/10 01:55:56;;;;;;;1.20;1.20;;;2.60;98.00;;;;;;5092752;28;20468;-62
2020/12/10 01:58:23;;;;;;;1.10;1.03;;;2.50;98.00;;;;;;5094402;28;20896;-62
2020/12/10 02:00:51;;;;;;;1.30;1.20;;;2.50;98.00;;;;;;5091863;28;20889;-62
2020/12/10 02:03:19;;;;;;;1.10;0.90;;;2.60;98.00;;;;;;5094217;28;20501;-62
2020/12/10 02:05:47;;;;;;;1.77;1.47;;;2.70;98.00;;;;;;5092209;28;20450;-61
2020/12/10 02:08:13;;;;;;;1.10;0.90;;;2.80;98.00;;;;;;5094126;28;20890;-62
2020/12/10 02:10:40;;;;;;;1.40;1.40;;;2.80;98.00;;;;;;5092407;28;20848;-63
2020/12/10 02:13:07;;;;;;;1.70;1.60;;;2.60;98.00;;;;;;5094053;28;20973;-62
2020/12/10 02:15:34;;;;;;;1.50;1.40;;;2.60;98.00;;;;;;5092029;28;20447;-62
2020/12/10 02:18:03;;;;;;;1.30;1.20;;;2.50;98.00;;;;;;5093888;28;20446;-62
2020/12/10 02:20:30;;;;;;;3.33;1.90;;;2.30;98.00;;;;;;5092346;28;20451;-62
2020/12/10 02:23:02;;;;;;;1.40;1.20;;;2.30;98.00;;;;;;5093785;28;20459;-62
2020/12/10 02:25:31;;;;;;;1.73;1.20;;;2.30;98.00;;;;;;5092120;28;20463;-62
2020/12/10 02:28:00;;;;;;;1.40;1.33;;;2.40;98.00;;;;;;5093716;28;20609;-62
2020/12/10 02:30:28;;;;;;;1.93;1.73;;;2.50;98.00;;;;;;5091989;28;20512;-62
2020/12/10 02:32:58;;;;;;;1.30;1.20;;;2.40;98.00;;;;;;5093708;28;20798;-62
2020/12/10 02:35:26;;;;;;;8.73;1.37;;;2.40;98.00;;;;;;5091854;28;20527;-62
2020/12/10 03:11:59;;;;;;;1.10;1.00;;;2.10;98.00;;;;;;5091480;28;20464;-62
2020/12/10 03:14:25;;;;;;;1.23;1.00;;;2.10;98.00;;;;;;5092959;28;21110;-62
2020/12/10 03:16:52;;;;;;;2.27;1.43;;;2.10;98.00;;;;;;5091333;28;20500;-62
2020/12/10 03:19:18;;;;;;;1.10;1.00;;;2.20;98.00;;;;;;5093029;28;20866;-63
2020/12/10 03:21:45;;;;;;;2.23;1.83;;;2.20;98.00;;;;;;5090797;28;20451;-62
2020/12/10 03:24:11;;;;;;;1.20;1.10;;;2.20;98.00;;;;;;5092942;28;20451;-63
2020/12/10 03:26:38;;;;;;;1.50;1.30;;;2.10;98.00;;;;;;5090669;28;20871;-62
2020/12/10 03:29:07;;;;;;;2.23;1.17;;;2.10;98.00;;;;;;5092892;28;20868;-62
2020/12/10 03:31:34;;;;;;;1.60;1.50;;;2.00;98.00;;;;;;5090988;28;20952;-61
2020/12/10 03:34:04;;;;;;;1.53;1.47;;;2.00;98.00;;;;;;5092655;28;20444;-62
2020/12/10 03:36:45;;;;;;;1.50;1.50;;;2.10;98.00;;;;;;5089513;28;20471;-62
2020/12/10 03:39:11;;;;;;;1.37;1.27;;;2.10;98.00;;;;;;5091992;28;20451;-62
2020/12/10 03:41:38;;;;;;;1.20;1.20;;;2.20;98.00;;;;;;5089585;28;20517;-62
2020/12/10 03:44:05;;;;;;;1.60;1.30;;;2.30;98.00;;;;;;5092117;28;20505;-62
2020/12/10 03:46:32;;;;;;;1.20;1.10;;;2.10;98.00;;;;;;5090672;28;20530;-62
2020/12/10 03:48:58;;;;;;;2.07;1.70;;;2.10;98.00;;;;;;5092286;28;20486;-61
2020/12/10 03:51:25;;;;;;;1.87;1.13;;;2.10;98.00;;;;;;5089866;28;20466;-62
2020/12/10 03:53:51;;;;;;;1.10;1.00;;;2.00;98.00;;;;;;5092319;28;20946;-62
2020/12/10 03:56:18;;;;;;;1.10;1.00;;;2.10;98.00;;;;;;5089376;28;20489;-62
2020/12/10 03:58:47;;;;;;;1.47;1.47;;;2.10;98.00;;;;;;5092078;28;20459;-62
2020/12/10 04:01:14;;;;;;;3.70;2.77;;;2.10;98.00;;;;;;5089981;28;20498;-62
2020/12/10 04:03:41;;;;;;;1.83;1.40;;;2.00;98.00;;;;;;5091891;28;20455;-62
2020/12/10 04:06:07;;;;;;;1.93;1.27;;;1.90;98.00;;;;;;5090141;28;20458;-63
2020/12/10 04:08:35;;;;;;;1.30;1.20;;;1.90;98.00;;;;;;5091804;28;20540;-62
2020/12/10 04:11:02;;;;;;;1.93;1.43;;;1.90;98.00;;;;;;5090291;28;20443;-62
2020/12/10 04:13:28;;;;;;;1.27;1.10;;;1.80;98.00;;;;;;5091879;28;20449;-62
2020/12/10 04:15:55;;;;;;;1.10;0.90;;;1.80;98.00;;;;;;5091404;28;20455;-63
2020/12/10 04:18:22;;;;;;;1.13;1.03;;;1.80;98.00;;;;;;5090066;28;20503;-62
2020/12/10 04:20:49;;;;;;;1.10;0.93;;;1.80;98.00;;;;;;5091849;28;20933;-62
2020/12/10 04:23:15;;;;;;;1.83;1.53;;;1.80;98.00;;;;;;5089725;28;20522;-62
2020/12/10 04:25:42;;;;;;;1.10;0.90;;;1.80;98.00;;;;;;5091730;28;20536;-62
2020/12/10 04:28:08;;;;;;;1.20;1.10;;;1.80;98.00;;;;;;5089303;28;20485;-62
2020/12/10 04:30:35;;;;;;;1.10;1.00;;;1.90;98.00;;;;;;5090667;28;20456;-62
2020/12/10 04:33:02;;;;;;;2.47;1.80;;;2.00;98.00;;;;;;5088632;28;20451;-62
2020/12/10 04:35:29;;;;;;;1.57;1.40;;;2.10;98.00;;;;;;5091605;28;20509;-63
2020/12/10 04:37:55;;;;;;;1.10;1.00;;;2.10;98.00;;;;;;5088765;28;20454;-62
2020/12/10 04:40:22;;;;;;;1.40;1.20;;;2.00;98.00;;;;;;5091961;28;20715;-62
2020/12/10 04:42:49;;;;;;;2.70;1.83;;;2.00;98.00;;;;;;5089817;28;20467;-62
2020/12/10 04:45:16;;;;;;;1.20;1.10;;;1.90;98.00;;;;;;5091678;28;20454;-62
2020/12/10 04:47:43;;;;;;;1.50;1.20;;;1.90;98.00;;;;;;5089497;28;20540;-62
2020/12/10 04:50:17;;;;;;;1.53;1.10;;;1.90;98.00;;;;;;5091659;28;20855;-62
2020/12/10 04:52:45;;;;;;;1.10;1.00;;;1.90;98.00;;;;;;5089638;28;20458;-62
2020/12/10 04:55:13;;;;;;;1.60;1.47;;;2.00;98.00;;;;;;5090835;28;20517;-62
2020/12/10 04:57:40;;;;;;;1.83;1.13;;;2.00;98.00;;;;;;5087623;28;20447;-62
2020/12/10 05:00:08;;;;;;;2.03;1.40;;;2.00;98.00;;;;;;5090442;28;20461;-63
2020/12/10 05:02:34;;;;;;;1.50;1.40;;;1.90;98.00;;;;;;5088752;28;20478;-62
2020/12/10 05:05:20;;;;;;;1.97;1.80;;;1.90;98.00;;;;;;5091161;28;20452;-62
2020/12/10 05:07:47;;;;;;;1.60;1.27;;;1.90;98.00;;;;;;5089527;28;20529;-62
2020/12/10 05:10:16;;;;;;;1.50;1.50;;;1.90;98.00;;;;;;5095351;28;20451;-62
2020/12/10 05:12:43;;;;;;;1.10;1.00;;;1.80;98.00;;;;;;5093599;28;20454;-61
2020/12/10 05:15:11;;;;;;;1.10;1.10;;;1.90;98.00;;;;;;5095212;28;20786;-62
2020/12/10 05:17:38;;;;;;;2.27;1.20;;;1.90;98.00;;;;;;5093488;28;20804;-61
2020/12/10 05:20:06;;;;;;;1.20;1.20;;;1.90;98.00;;;;;;5095137;28;21151;-62
2020/12/10 05:22:34;;;;;;;1.10;1.10;;;1.80;98.00;;;;;;5093195;28;20455;-62
2020/12/10 05:25:03;;;;;;;1.90;1.43;;;1.80;98.00;;;;;;5095174;28;20449;-62
2020/12/10 05:27:30;;;;;;;2.40;1.40;;;1.70;98.00;;;;;;5093223;28;20539;-62
2020/12/10 05:29:56;;;;;;;1.10;1.00;;;1.70;98.00;;;;;;5095084;28;20460;-62
2020/12/10 05:32:38;;;;;;;1.30;1.20;;;1.70;98.00;;;;;;5093217;28;20492;-62
2020/12/10 05:35:22;;;;;;;3.93;1.77;;;1.70;98.00;;;;;;5094789;28;21172;-62
2020/12/10 05:37:50;;;;;;;1.10;1.00;;;1.70;98.00;;;;;;5092691;28;20459;-62
2020/12/10 05:40:19;;;;;;;1.27;1.23;;;1.70;98.00;;;;;;5094791;28;20450;-61
2020/12/10 05:42:47;;;;;;;1.83;1.80;;;1.70;98.00;;;;;;5091911;28;20446;-63
2020/12/10 05:45:15;;;;;;;1.10;1.10;;;1.60;98.00;;;;;;5094662;28;20479;-61
2020/12/10 05:47:52;;;;;;;1.10;1.00;;;1.70;98.00;;;;;;5092568;28;20487;-62
2020/12/10 05:50:24;;;;;;;1.30;1.20;;;1.80;98.00;;;;;;5094625;28;20507;-62
2020/12/10 05:53:04;;;;;;;1.10;0.90;;;1.70;98.00;;;;;;5092740;28;20452;-62
2020/12/10 05:55:32;;;;;;;1.10;1.00;;;1.80;98.00;;;;;;5093083;28;20454;-62
2020/12/10 05:58:00;;;;;;;1.60;1.50;;;1.80;98.00;;;;;;5092862;28;20932;-62
2020/12/10 06:00:27;;;;;;;1.23;1.17;;;1.90;98.00;;;;;;5094078;28;20457;-62
2020/12/10 06:02:55;;;;;;;1.10;1.00;;;2.00;98.00;;;;;;5092696;28;20470;-62
2020/12/10 06:05:23;;;;;;;1.10;0.90;;;2.10;98.00;;;;;;5094326;28;20459;-62
2020/12/10 06:08:08;;;;;;;1.10;0.90;;;2.10;98.00;;;;;;5092420;28;20492;-62
2020/12/10 06:10:40;;;;;;;1.20;1.10;;;2.20;98.00;;;;;;5093940;28;20463;-62
2020/12/10 06:13:07;;;;;;;1.10;0.90;;;2.30;98.00;;;;;;5092654;28;20867;-63
2020/12/10 06:15:35;;;;;;;1.70;1.20;;;2.30;98.00;;;;;;5094127;28;20451;-62
2020/12/10 06:18:06;;;;;;;1.13;0.90;;;2.30;98.00;;;;;;5091936;28;20990;-63
2020/12/10 06:20:38;;;;;;;2.83;1.57;;;2.30;98.00;;;;;;5093948;28;20508;-62
2020/12/10 06:23:38;;;;;;;2.03;1.43;;;2.20;98.00;;;;;;5092526;28;20857;-62
2020/12/10 06:26:35;;;;;;;1.13;1.00;;;2.20;98.00;;;;;;5094424;28;20795;-62
2020/12/10 06:29:18;;;;;;;1.20;1.17;;;2.20;98.00;;;;;;5092244;28;20568;-62
2020/12/10 06:32:06;;;;;;;1.40;1.17;;;2.10;98.00;;;;;;5094127;28;20451;-62
2020/12/10 06:34:34;;;;;;;1.20;1.20;;;2.10;98.00;;;;;;5081897;28;20452;-62
2020/12/10 06:37:16;;;;;;;1.10;0.90;;;2.00;98.00;;;;;;5093966;28;20528;-62
2020/12/10 06:39:43;;;;;;;1.10;1.00;;;2.00;98.00;;;;;;5091556;28;20500;-62
2020/12/10 06:42:11;;;;;;;1.63;1.50;;;1.90;98.00;;;;;;5093473;28;20458;-62
2020/12/10 06:44:38;;;;;;;1.20;1.00;;;1.80;98.00;;;;;;5091451;28;20446;-62
2020/12/10 06:47:06;;;;;;;1.30;1.13;;;1.80;98.00;;;;;;5092373;28;20508;-62
2020/12/10 06:49:34;;;;;;;1.60;1.50;;;1.80;98.00;;;;;;5091416;28;20447;-62
2020/12/10 06:52:18;;;;;;;4.40;2.40;;;1.80;98.00;;;;;;5093646;28;20451;-62
2020/12/10 06:55:08;;;;;;;1.10;0.97;;;1.80;98.00;;;;;;5091603;28;20803;-62
2020/12/10 06:58:03;;;;;;;1.10;1.03;;;1.80;98.00;;;;;;5093016;28;20507;-62
2020/12/10 07:00:38;;;;;;;1.60;1.13;;;1.80;98.00;;;;;;5093239;28;20466;-62
2020/12/10 07:03:21;;;;;;;1.10;1.07;;;1.90;98.00;;;;;;5090288;28;20453;-63
2020/12/10 07:05:49;;;;;;;2.57;1.93;;;1.90;98.00;;;;;;5093069;28;20482;-62
2020/12/10 07:08:18;;;;;;;1.20;1.10;;;1.80;98.00;;;;;;5091283;28;20481;-62
2020/12/10 07:10:46;;;;;;;1.10;1.00;;;1.80;98.00;;;;;;5093085;28;20541;-62
2020/12/10 07:13:15;;;;;;;1.80;1.63;;;2.00;98.00;;;;;;5091239;28;20458;-62
2020/12/10 07:15:48;;;;;;;1.40;1.30;;;1.90;98.00;;;;;;5092618;28;21005;-63
2020/12/10 07:18:15;;;;;;;1.60;1.33;;;1.80;98.00;;;;;;5091617;28;20956;-62
2020/12/10 07:20:42;;;;;;;1.10;1.00;;;1.80;98.00;;;;;;5092586;28;20516;-62
2020/12/10 07:23:08;;;;;;;1.20;1.10;;;1.80;98.00;;;;;;5092835;28;20508;-62
2020/12/10 07:25:35;;;;;;;1.20;1.10;;;1.90;98.00;;;;;;5091086;28;20453;-62
2020/12/10 07:28:01;;;;;;;1.10;1.00;;;1.90;98.00;;;;;;5092573;28;20483;-62
2020/12/10 07:30:30;;;;;;;1.43;1.33;;;1.90;98.00;;;;;;5090090;28;20917;-62
2020/12/10 07:32:58;;;;;;;1.20;1.10;;;2.00;98.00;;;;;;5091216;28;20448;-62
2020/12/10 07:35:30;;;;;;;1.87;1.77;;;2.00;98.00;;;;;;5091132;28;20456;-63
2020/12/10 07:38:06;;;;;;;1.10;0.90;;;2.10;98.00;;;;;;5092394;28;20492;-62
2020/12/10 07:40:33;;;;;;;1.10;0.90;;;2.10;98.00;;;;;;5090190;28;20949;-62
2020/12/10 07:43:03;;;;;;;1.10;1.10;;;2.20;98.00;;;;;;5092351;28;20462;-62
2020/12/10 07:45:30;;;;;;;1.63;1.53;;;2.20;98.00;;;;;;5090052;28;20869;-62
2020/12/10 07:47:57;;;;;;;1.27;1.00;;;2.30;98.00;;;;;;5091956;28;20486;-62
2020/12/10 07:50:26;;;;;;;1.10;1.00;;;2.30;98.00;;;;;;5090612;28;20455;-62
2020/12/10 07:52:54;;;;;;;1.43;1.37;;;2.30;98.00;;;;;;5092027;28;20447;-60
2020/12/10 07:55:24;;;;;;;1.30;1.20;;;2.20;98.00;;;;;;5090305;28;20924;-61
2020/12/10 07:58:06;;;;;;;2.83;1.67;;;2.20;98.00;;;;;;5092086;28;20508;-62
2020/12/10 08:00:37;;;;;;;1.67;1.20;;;2.20;98.00;;;;;;5090068;28;20458;-61
2020/12/10 08:03:12;;;;;;;1.63;1.30;;;2.10;98.00;;;;;;5092271;28;20508;-62
2020/12/10 08:06:08;;;;;;;2.03;1.13;;;2.20;98.00;;;;;;5090689;28;20453;-61
2020/12/10 08:08:37;;;;;;;1.50;1.50;;;2.30;98.00;;;;;;5055533;28;20499;-61
2020/12/10 08:11:12;;;;;;;2.13;1.57;;;2.30;98.00;;;;;;5090457;28;20844;-61
2020/12/10 08:13:59;;;;;;;1.73;1.60;;;2.20;98.00;;;;;;5092113;28;20481;-61
2020/12/10 08:16:37;;;;;;;1.10;0.90;;;2.10;98.00;;;;;;5092163;28;20469;-61
2020/12/10 08:19:17;;;;;;;1.10;1.00;;;2.10;98.00;;;;;;5090294;28;20534;-61
2020/12/10 08:21:45;;;;;;;1.20;1.00;;;2.20;98.00;;;;;;5091806;28;20450;-62
2020/12/10 08:24:13;;;;;;;1.47;1.40;;;2.30;98.00;;;;;;5090173;28;20455;-61
2020/12/10 08:26:40;;;;;;;1.63;1.17;;;2.40;98.00;;;;;;5091680;28;20451;-61
2020/12/10 08:29:07;;;;;;;2.57;1.40;;;2.30;98.00;;;;;;5089843;28;21065;-61
2020/12/10 08:31:36;;;;;;;1.20;1.10;;;2.40;98.00;;;;;;5091624;28;20455;-61
2020/12/10 08:34:02;;;;;;;1.10;1.00;;;2.50;98.00;;;;;;5090993;28;20485;-62
2020/12/10 08:36:32;;;;;;;1.40;1.10;;;2.60;98.00;;;;;;5091159;28;20517;-61
2020/12/10 08:39:00;;;;;;;1.63;1.10;;;2.70;98.00;;;;;;5091509;28;20455;-62
2020/12/10 08:41:29;;;;;;;1.13;1.00;;;2.80;98.00;;;;;;5089631;28;20471;-61
2020/12/10 08:43:58;;;;;;;2.43;1.73;;;2.70;98.00;;;;;;5090061;28;20476;-61
2020/12/10 08:46:28;;;;;;;1.10;0.90;;;2.90;98.00;;;;;;5090133;28;20444;-61
2020/12/10 08:48:56;;;;;;;1.10;0.90;;;3.30;98.00;;;;;;5091381;28;20823;-62
2020/12/10 08:51:37;;;;;;;1.93;1.77;;;4.80;98.00;;;;;;5088444;28;20470;-61
2020/12/10 08:54:04;;;;;;;2.03;1.37;;;5.90;98.00;;;;;;5091480;28;20452;-61
2020/12/10 08:56:37;;;;;;;2.90;1.50;;;5.90;98.00;;;;;;5089410;28;20908;-61
2020/12/10 08:59:03;;;;;;;1.20;1.00;;;5.70;98.00;;;;;;5091319;28;20469;-61
2020/12/10 09:01:32;;;;;;;1.93;1.90;;;5.40;98.00;;;;;;5089648;28;20517;-60
2020/12/10 09:03:59;;;;;;;3.77;1.40;;;4.90;98.00;;;;;;5089735;28;20889;-60
2020/12/10 09:06:33;;;;;;;1.77;1.50;;;4.60;98.00;;;;;;5089204;28;20526;-63
2020/12/10 09:09:01;;;;;;;3.93;2.70;;;4.30;98.00;;;;;;5088266;28;20485;-62
2020/12/10 09:11:30;;;;;;;1.30;1.20;;;4.10;98.00;;;;;;5088891;28;20444;-62
2020/12/10 09:13:58;;;;;;;1.20;0.90;;;4.00;98.00;;;;;;5072891;28;20448;-63
2020/12/10 09:16:26;;;;;;;1.70;1.60;;;4.00;98.00;;;;;;5089137;28;20448;-62
2020/12/10 09:18:53;;;;;;;1.20;1.10;;;3.70;98.00;;;;;;5088703;28;20931;-61
2020/12/10 09:21:21;;;;;;;1.70;1.10;;;3.70;98.00;;;;;;5088742;28;20539;-62
2020/12/10 09:23:47;;;;;;;1.40;1.30;;;3.60;98.00;;;;;;5089181;28;21020;-62
2020/12/10 09:26:15;;;;;;;2.03;1.90;;;3.60;98.00;;;;;;5088641;28;21027;-61
2020/12/10 09:28:42;;;;;;;2.70;2.20;;;3.70;98.00;;;;;;5089099;28;20483;-61
2020/12/10 09:31:09;;;;;;;1.50;1.50;;;3.40;98.00;;;;;;5088388;28;20505;-61
2020/12/10 09:33:36;;;;;;;1.20;0.90;;;3.10;98.00;;;;;;5090300;28;20509;-62
2020/12/10 09:36:02;;;;;;;1.40;1.30;;;3.10;98.00;;;;;;5088828;28;20444;-61
2020/12/10 09:38:35;;;;;;;2.03;1.33;;;3.20;98.00;;;;;;5090552;28;20455;-61
2020/12/10 09:41:02;;;;;;;2.03;1.47;;;3.20;98.00;;;;;;5088121;28;20440;-61
2020/12/10 09:43:28;;;;;;;1.40;1.30;;;3.20;98.00;;;;;;5090629;28;20444;-61
2020/12/10 09:46:02;;;;;;;1.20;1.10;;;3.20;98.00;;;;;;5088417;28;20572;-60
2020/12/10 09:48:28;;;;;;;1.30;1.20;;;3.10;98.00;;;;;;5090480;28;20493;-61
2020/12/10 09:50:55;;;;;;;2.37;1.53;;;3.00;98.00;;;;;;5086878;28;20451;-60
2020/12/10 09:53:25;;;;;;;1.20;1.07;;;2.90;98.00;;;;;;5091372;28;20546;-61
2020/12/10 09:58:36;;;;;;;2.80;1.83;;;2.90;98.00;;;;;;5094313;28;20447;-60
2020/12/10 10:01:02;;;;;;;1.90;1.80;;;2.80;98.00;;;;;;5092028;28;20467;-61
2020/12/10 10:03:29;;;;;;;1.30;1.20;;;2.80;98.00;;;;;;5094334;28;20512;-61
2020/12/10 10:05:56;;;;;;;1.20;1.00;;;2.80;98.00;;;;;;5092251;28;20848;-61
2020/12/10 10:08:24;;;;;;;1.63;1.17;;;2.90;98.00;;;;;;5093469;28;20570;-61
2020/12/10 10:10:51;;;;;;;2.70;1.70;;;3.00;98.00;;;;;;5091551;28;21075;-61
2020/12/10 10:13:18;;;;;;;1.20;1.00;;;3.10;98.00;;;;;;5093739;28;20456;-61
2020/12/10 10:15:45;;;;;;;9.70;3.63;;;3.00;98.00;;;;;;5092215;28;20459;-61
2020/12/10 10:18:12;;;;;;;1.40;1.30;;;3.00;98.00;;;;;;5094007;28;20461;-60
2020/12/10 10:20:39;;;;;;;1.10;1.00;;;3.00;98.00;;;;;;5092013;28;20850;-60
2020/12/10 10:23:05;;;;;;;2.70;1.53;;;3.10;98.00;;;;;;5092792;28;20463;-61
2020/12/10 10:25:32;;;;;;;1.20;1.10;;;3.20;98.00;;;;;;5092194;28;20509;-61
2020/12/10 10:27:59;;;;;;;1.37;1.33;;;3.20;98.00;;;;;;5093653;28;20483;-61
2020/12/10 10:30:26;;;;;;;1.80;1.70;;;3.10;98.00;;;;;;5093676;28;21005;-61
2020/12/10 10:32:53;;;;;;;1.73;1.63;;;3.20;98.00;;;;;;5090522;28;20858;-61
2020/12/10 10:35:20;;;;;;;1.50;1.40;;;3.30;98.00;;;;;;5092754;28;21074;-61
2020/12/10 10:37:47;;;;;;;1.57;1.50;;;3.30;98.00;;;;;;5091986;28;20463;-61
2020/12/10 10:40:13;;;;;;;2.70;2.07;;;3.20;98.00;;;;;;5093547;28;20461;-61
2020/12/10 10:42:41;;;;;;;2.03;1.60;;;3.20;98.00;;;;;;5091867;28;20517;-61
2020/12/10 10:45:09;;;;;;;1.70;1.57;;;3.20;98.00;;;;;;5093509;28;21007;-60
2020/12/10 10:47:36;;;;;;;1.37;1.13;;;3.50;98.00;;;;;;5091625;28;20868;-61
2020/12/10 10:50:05;;;;;;;1.20;1.17;;;3.30;98.00;;;;;;5093315;28;21067;-61
2020/12/10 10:52:31;;;;;;;1.20;1.13;;;3.30;98.00;;;;;;5091204;28;20464;-61
2020/12/10 10:54:59;;;;;;;4.50;1.73;;;3.40;98.00;;;;;;5093127;28;20452;-61
2020/12/10 10:57:25;;;;;;;8.30;1.17;;;3.30;98.00;;;;;;5091062;28;20448;-61
2020/12/10 10:59:53;;;;;;;1.10;1.00;;;3.20;98.00;;;;;;5093150;28;20471;-61
2020/12/10 11:02:20;;;;;;;1.10;1.00;;;3.10;98.00;;;;;;5090625;28;20456;-61
2020/12/10 11:04:51;;;;;;;1.20;1.00;;;3.20;98.00;;;;;;5091711;28;20510;-61
2020/12/10 11:07:18;;;;;;;1.20;1.10;;;3.30;98.00;;;;;;5090995;28;20452;-61
2020/12/10 11:09:48;;;;;;;1.20;1.00;;;3.20;98.00;;;;;;5090189;28;20573;-61
2020/12/10 11:12:15;;;;;;;2.53;1.67;;;3.10;98.00;;;;;;5091262;28;20542;-61
2020/12/10 11:14:42;;;;;;;2.13;1.77;;;3.20;98.00;;;;;;5092164;28;20466;-60
2020/12/10 11:17:09;;;;;;;1.13;1.00;;;3.10;98.00;;;;;;5072113;28;20909;-60
2020/12/10 11:19:36;;;;;;;3.00;1.20;;;3.10;98.00;;;;;;5070550;28;20567;-61
2020/12/10 11:22:03;;;;;;;5.90;2.83;;;3.20;98.00;;;;;;5071206;28;20510;-61
2020/12/10 11:24:30;;;;;;;1.20;1.10;;;3.20;98.00;;;;;;5070189;28;20464;-61
2020/12/10 11:26:57;;;;;;;1.20;1.00;;;3.20;98.00;;;;;;5070055;28;20944;-60
2020/12/10 11:29:23;;;;;;;2.13;1.53;;;3.30;98.00;;;;;;5071006;28;20485;-60
2020/12/10 11:31:50;;;;;;;4.50;2.20;;;3.40;98.00;;;;;;5070272;28;20456;-59
2020/12/10 11:34:18;;;;;;;1.20;1.10;;;3.40;98.00;;;;;;5071697;28;20509;-60
2020/12/10 11:36:46;;;;;;;1.20;1.00;;;3.30;98.00;;;;;;5069099;28;20449;-60
2020/12/10 11:39:13;;;;;;;1.20;1.10;;;3.30;98.00;;;;;;5071075;28;20594;-61
2020/12/10 11:41:40;;;;;;;1.80;1.80;;;3.30;98.00;;;;;;5069773;28;20456;-61
2020/12/10 11:44:07;;;;;;;1.40;1.30;;;3.30;98.00;;;;;;5071008;28;20460;-60
2020/12/10 11:46:33;;;;;;;1.30;1.10;;;3.30;98.00;;;;;;5068077;28;20887;-60
2020/12/10 11:49:00;;;;;;;6.30;1.47;;;3.50;98.00;;;;;;5073023;28;20480;-60
2020/12/10 11:51:27;;;;;;;1.30;1.10;;;3.50;98.00;;;;;;5090286;28;21027;-62
2020/12/10 11:53:55;;;;;;;1.30;1.10;;;3.60;98.00;;;;;;5091030;28;20496;-60
2020/12/10 11:56:25;;;;;;;1.20;1.03;;;3.80;98.00;;;;;;5091205;28;20482;-62
2020/12/10 11:58:51;;;;;;;1.20;1.10;;;3.70;98.00;;;;;;5090420;28;20527;-61
2020/12/10 12:01:18;;;;;;;1.40;1.37;;;3.80;98.00;;;;;;5091087;28;20475;-61
2020/12/10 12:03:45;;;;;;;1.20;0.90;;;3.80;98.00;;;;;;5088514;28;21000;-61
2020/12/10 12:06:11;;;;;;;2.80;1.33;;;3.60;98.00;;;;;;5090853;28;20455;-61
2020/12/10 12:08:38;;;;;;;1.40;1.20;;;3.60;98.00;;;;;;5089218;28;21070;-61
2020/12/10 12:11:05;;;;;;;1.40;1.37;;;3.50;98.00;;;;;;5089955;28;20452;-60
2020/12/10 12:13:31;;;;;;;2.13;1.83;;;3.50;98.00;;;;;;5089542;28;20864;-60
2020/12/10 12:15:58;;;;;;;1.20;0.97;;;3.50;98.00;;;;;;5090615;28;20505;-61
2020/12/10 12:18:26;;;;;;;1.50;1.40;;;3.40;98.00;;;;;;5089142;28;20456;-60
2020/12/10 12:20:55;;;;;;;1.57;1.53;;;3.50;98.00;;;;;;5090850;28;20448;-60
2020/12/10 12:23:21;;;;;;;1.37;1.30;;;3.60;98.00;;;;;;5088614;28;20505;-61
2020/12/10 12:25:49;;;;;;;1.20;1.00;;;3.70;98.00;;;;;;5090646;28;20455;-61
2020/12/10 12:28:16;;;;;;;1.13;0.97;;;3.60;98.00;;;;;;5089466;28;20908;-62
2020/12/10 12:30:44;;;;;;;1.20;1.00;;;3.60;98.00;;;;;;5090699;28;20879;-60
2020/12/10 12:33:11;;;;;;;1.20;1.00;;;3.50;98.00;;;;;;5089119;28;20459;-60
2020/12/10 12:35:41;;;;;;;1.83;1.60;;;3.40;98.00;;;;;;5090057;28;20452;-60
2020/12/10 12:38:07;;;;;;;1.20;1.00;;;3.30;98.00;;;;;;5089177;28;20524;-61
2020/12/10 12:40:34;;;;;;;1.30;1.10;;;3.30;98.00;;;;;;5090459;28;20607;-61
2020/12/10 12:43:01;;;;;;;1.20;1.00;;;3.30;98.00;;;;;;5087630;28;21015;-61
2020/12/10 12:45:29;;;;;;;1.10;0.90;;;3.30;98.00;;;;;;5090108;28;20459;-60
2020/12/10 12:47:56;;;;;;;1.43;1.20;;;3.30;98.00;;;;;;5087138;28;20460;-60
2020/12/10 12:50:23;;;;;;;1.20;1.00;;;3.30;98.00;;;;;;5090257;28;20584;-60
2020/12/10 12:52:49;;;;;;;1.63;1.33;;;3.40;98.00;;;;;;5088516;28;20455;-61
2020/12/10 12:55:16;;;;;;;1.20;1.10;;;3.50;98.00;;;;;;5090164;28;20460;-60
2020/12/10 12:57:43;;;;;;;1.10;0.93;;;3.50;98.00;;;;;;5088973;28;20451;-60
2020/12/10 13:00:09;;;;;;;1.20;1.00;;;3.50;98.00;;;;;;5090089;28;20463;-61
2020/12/10 13:02:36;;;;;;;1.80;1.07;;;3.40;98.00;;;;;;5088425;28;20443;-61
2020/12/10 13:05:04;;;;;;;1.30;1.00;;;3.40;98.00;;;;;;5089875;28;20459;-60
2020/12/10 13:07:31;;;;;;;1.20;1.00;;;3.40;98.00;;;;;;5088327;28;20949;-60
2020/12/10 13:09:57;;;;;;;1.23;1.23;;;3.40;98.00;;;;;;5090030;28;20549;-60
2020/12/10 13:12:24;;;;;;;1.70;1.47;;;3.40;98.00;;;;;;5088377;28;20519;-60
2020/12/10 13:14:51;;;;;;;1.73;1.37;;;3.40;98.00;;;;;;5089523;28;20957;-62
2020/12/10 13:17:19;;;;;;;1.20;1.03;;;3.40;98.00;;;;;;5090078;28;20447;-61
2020/12/10 13:19:46;;;;;;;1.60;1.57;;;3.30;98.00;;;;;;5088308;28;20509;-61
2020/12/10 13:22:13;;;;;;;1.20;1.10;;;3.40;98.00;;;;;;5090403;28;20459;-61
2020/12/10 13:24:40;;;;;;;1.20;1.10;;;3.30;98.00;;;;;;5088617;28;20555;-61
2020/12/10 13:27:06;;;;;;;3.10;1.73;;;3.30;98.00;;;;;;5090052;28;20870;-61
2020/12/10 13:29:33;;;;;;;2.20;1.57;;;3.40;98.00;;;;;;5091427;28;20610;-60
2020/12/10 13:32:02;;;;;;;2.03;1.43;;;3.60;98.00;;;;;;5094040;28;20493;-61
2020/12/10 13:34:29;;;;;;;1.20;1.00;;;3.50;98.00;;;;;;5092449;28;20891;-61
2020/12/10 13:36:56;;;;;;;1.33;1.27;;;3.50;98.00;;;;;;5093757;28;20459;-61
2020/12/10 13:39:24;;;;;;;1.80;1.23;;;3.50;98.00;;;;;;5092621;28;20508;-61
2020/12/10 13:41:50;;;;;;;1.20;0.90;;;3.50;98.00;;;;;;5093962;28;21100;-60